createdAt,value
2023-03-22T00:01:12.600Z,70.69
2023-03-22T00:03:41.046Z,70.56
2023-03-22T00:06:08.765Z,70.91
2023-03-22T00:08:36.940Z,70.98
2023-03-22T00:11:04.663Z,71.53
2023-03-22T00:13:33.902Z,70.95
2023-03-22T00:16:03.480Z,70.78
2023-03-22T00:18:31.135Z,70.93
2023-03-22T00:20:59.302Z,70.95
2023-03-22T00:23:26.903Z,70.67
2023-03-22T00:25:54.552Z,71.13
2023-03-22T00:28:22.251Z,70.51
2023-03-22T00:30:49.880Z,70.90
2023-03-22T00:33:18.053Z,70.65
2023-03-22T00:35:45.718Z,70.43
2023-03-22T00:38:14.395Z,70.95
2023-03-22T00:40:42.455Z,70.71
2023-03-22T00:43:10.102Z,70.93
2023-03-22T00:45:40.498Z,71.27
2023-03-22T00:48:08.150Z,71.45
2023-03-22T00:50:36.018Z,71.38
2023-03-22T00:53:03.608Z,71.37
2023-03-22T00:55:31.333Z,71.07
2023-03-22T00:57:59.280Z,70.99
2023-03-22T01:00:27.364Z,71.25
2023-03-22T01:02:59.980Z,71.55
2023-03-22T01:05:28.587Z,71.19
2023-03-22T01:07:57.049Z,71.10
2023-03-22T01:10:25.208Z,70.94
2023-03-22T01:12:52.908Z,71.46
2023-03-22T01:15:20.545Z,71.08
2023-03-22T01:17:48.176Z,71.42
2023-03-22T01:20:15.819Z,71.29
2023-03-22T01:22:43.928Z,71.00
2023-03-22T01:25:11.547Z,70.95
2023-03-22T01:27:39.098Z,71.41
2023-03-22T01:30:06.705Z,71.36
2023-03-22T01:32:34.383Z,71.23
2023-03-22T01:35:02.419Z,70.87
2023-03-22T01:37:29.973Z,71.41
2023-03-22T01:39:57.580Z,71.49
2023-03-22T01:42:25.174Z,71.14
2023-03-22T01:44:53.215Z,71.36
2023-03-22T01:47:21.909Z,72.01
2023-03-22T01:49:49.510Z,71.35
2023-03-22T01:52:17.087Z,71.68
2023-03-22T01:54:45.017Z,71.85
2023-03-22T01:57:12.599Z,72.54
2023-03-22T01:59:40.173Z,72.42
2023-03-22T02:02:07.822Z,72.12
2023-03-22T02:04:35.462Z,72.14
2023-03-22T02:07:03.745Z,72.57
2023-03-22T02:09:31.396Z,72.89
2023-03-22T02:11:59.319Z,72.99
2023-03-22T02:14:27.428Z,72.97
2023-03-22T02:16:55.146Z,72.96
2023-03-22T02:19:22.739Z,73.20
2023-03-22T02:21:50.333Z,72.47
2023-03-22T02:24:18.267Z,72.44
2023-03-22T02:26:47.086Z,72.38
2023-03-22T02:29:15.142Z,72.88
2023-03-22T02:31:42.774Z,72.49
2023-03-22T02:34:10.577Z,72.26
2023-03-22T02:36:38.486Z,72.21
2023-03-22T02:39:06.802Z,72.65
2023-03-22T02:41:34.400Z,73.01
2023-03-22T02:44:02.161Z,73.19
2023-03-22T02:46:30.852Z,73.35
2023-03-22T02:48:59.119Z,72.59
2023-03-22T02:51:26.694Z,72.85
2023-03-22T02:53:54.303Z,73.11
2023-03-22T02:56:21.877Z,73.30
2023-03-22T02:58:49.468Z,73.16
2023-03-22T03:01:18.521Z,73.05
2023-03-22T03:03:48.248Z,72.69
2023-03-22T03:06:15.856Z,72.90
2023-03-22T03:08:43.433Z,73.00
2023-03-22T03:11:11.350Z,73.11
2023-03-22T03:13:40.098Z,72.84
2023-03-22T03:16:08.420Z,73.11
2023-03-22T03:18:36.000Z,72.83
2023-03-22T03:21:03.597Z,73.99
2023-03-22T03:23:31.362Z,74.04
2023-03-22T03:25:59.532Z,73.64
2023-03-22T03:28:30.630Z,73.59
2023-03-22T03:30:58.259Z,74.16
2023-03-22T03:33:26.046Z,73.35
2023-03-22T03:35:54.668Z,74.20
2023-03-22T03:38:22.599Z,74.15
2023-03-22T03:40:50.171Z,74.12
2023-03-22T03:43:17.766Z,74.71
2023-03-22T03:45:45.899Z,74.36
2023-03-22T03:48:13.523Z,74.49
2023-03-22T03:50:41.790Z,74.45
2023-03-22T03:53:09.551Z,74.64
2023-03-22T03:55:37.764Z,74.91
2023-03-22T03:58:05.781Z,74.40
2023-03-22T04:00:33.442Z,74.79
2023-03-22T04:03:01.581Z,74.54
2023-03-22T04:05:29.154Z,75.04
2023-03-22T04:07:56.755Z,74.86
2023-03-22T04:10:24.328Z,75.42
2023-03-22T04:12:51.880Z,75.15
2023-03-22T04:15:19.504Z,75.25
2023-03-22T04:17:47.142Z,75.06
2023-03-22T04:20:14.891Z,75.22
2023-03-22T04:22:42.559Z,75.48
2023-03-22T04:25:11.932Z,75.71
2023-03-22T04:27:39.702Z,75.48
2023-03-22T04:30:07.342Z,75.20
2023-03-22T04:32:34.899Z,75.43
2023-03-22T04:35:02.610Z,75.03
2023-03-22T04:37:31.734Z,75.35
2023-03-22T04:40:00.892Z,75.41
2023-03-22T04:42:28.468Z,74.98
2023-03-22T04:44:56.074Z,75.27
2023-03-22T04:47:23.622Z,75.74
2023-03-22T04:49:51.190Z,75.53
2023-03-22T04:52:19.310Z,75.92
2023-03-22T04:54:46.877Z,75.77
2023-03-22T04:57:14.402Z,75.85
2023-03-22T04:59:41.986Z,75.71
2023-03-22T05:02:09.923Z,75.44
2023-03-22T05:04:37.814Z,76.33
2023-03-22T05:07:05.747Z,76.15
2023-03-22T05:09:33.511Z,76.11
2023-03-22T05:12:01.168Z,76.07
2023-03-22T05:14:28.766Z,75.72
2023-03-22T05:16:56.721Z,76.49
2023-03-22T05:19:24.614Z,76.12
2023-03-22T05:21:58.118Z,76.09
2023-03-22T05:24:26.198Z,75.89
2023-03-22T05:26:54.877Z,76.36
2023-03-22T05:29:23.181Z,76.31
2023-03-22T05:31:50.794Z,76.10
2023-03-22T05:34:20.392Z,76.28
2023-03-22T05:36:48.000Z,76.26
2023-03-22T05:39:16.148Z,76.52
2023-03-22T05:41:43.783Z,76.24
2023-03-22T05:44:11.958Z,76.32
2023-03-22T05:46:39.583Z,76.14
2023-03-22T05:49:07.204Z,76.29
2023-03-22T05:51:41.639Z,76.01
2023-03-22T05:54:10.162Z,75.92
2023-03-22T05:56:39.940Z,75.96
2023-03-22T05:59:07.847Z,75.94
2023-03-22T06:01:35.562Z,75.61
2023-03-22T06:04:03.266Z,75.54
2023-03-22T06:06:33.148Z,75.30
2023-03-22T06:09:14.163Z,75.24
2023-03-22T06:11:43.883Z,75.39
2023-03-22T06:14:11.531Z,74.79
2023-03-22T06:16:39.764Z,74.53
2023-03-22T06:19:07.670Z,74.58
2023-03-22T06:21:35.241Z,74.09
2023-03-22T06:24:02.941Z,74.36
2023-03-22T06:26:30.615Z,74.32
2023-03-22T06:28:58.588Z,74.61
2023-03-22T06:31:26.182Z,74.26
2023-03-22T06:33:55.854Z,74.48
2023-03-22T06:36:23.780Z,74.19
2023-03-22T06:38:51.479Z,73.79
2023-03-22T06:41:19.594Z,73.67
2023-03-22T06:43:47.194Z,73.48
2023-03-22T06:46:14.843Z,73.57
2023-03-22T06:48:42.665Z,73.63
2023-03-22T06:51:10.452Z,73.09
2023-03-22T06:53:38.969Z,73.09
2023-03-22T06:56:06.748Z,73.62
2023-03-22T06:58:34.467Z,73.60
2023-03-22T07:01:02.253Z,72.88
2023-03-22T07:03:29.949Z,72.80
2023-03-22T07:05:58.125Z,72.88
2023-03-22T07:08:26.074Z,72.94
2023-03-22T07:10:53.865Z,72.41
2023-03-22T07:13:21.525Z,72.32
2023-03-22T07:15:49.470Z,72.66
2023-03-22T07:18:18.107Z,72.63
2023-03-22T07:20:45.940Z,72.63
2023-03-22T07:23:13.590Z,72.57
2023-03-22T07:25:41.218Z,72.17
2023-03-22T07:28:10.616Z,72.36
2023-03-22T07:30:39.749Z,72.24
2023-03-22T07:33:07.671Z,72.24
2023-03-22T07:35:35.336Z,72.49
2023-03-22T07:38:03.179Z,72.17
2023-03-22T07:40:31.124Z,71.50
2023-03-22T07:43:00.517Z,72.37
2023-03-22T07:45:28.733Z,72.56
2023-03-22T07:47:56.636Z,72.27
2023-03-22T07:50:24.367Z,71.94
2023-03-22T07:52:52.314Z,72.54
2023-03-22T07:55:20.643Z,71.98
2023-03-22T07:57:48.398Z,71.59
2023-03-22T08:00:16.254Z,71.32
2023-03-22T08:02:46.088Z,71.39
2023-03-22T08:05:13.818Z,71.04
2023-03-22T08:07:42.477Z,70.98
2023-03-22T08:10:10.493Z,70.28
2023-03-22T08:12:38.256Z,69.61
2023-03-22T08:15:06.366Z,69.41
2023-03-22T08:17:34.255Z,69.00
2023-03-22T08:20:03.477Z,68.27
2023-03-22T08:22:31.168Z,68.77
2023-03-22T08:24:58.988Z,67.88
2023-03-22T08:27:27.493Z,67.73
2023-03-22T08:29:55.493Z,67.60
2023-03-22T08:32:23.256Z,67.59
2023-03-22T08:34:51.292Z,67.54
2023-03-22T08:37:20.440Z,67.94
2023-03-22T08:39:48.314Z,67.53
2023-03-22T08:42:17.061Z,67.75
2023-03-22T08:44:45.608Z,67.93
2023-03-22T08:47:13.597Z,67.79
2023-03-22T08:49:41.980Z,67.57
2023-03-22T08:52:09.886Z,67.40
2023-03-22T08:54:38.413Z,66.42
2023-03-22T08:57:09.927Z,65.99
2023-03-22T08:59:38.208Z,66.66
2023-03-22T09:02:06.175Z,66.36
2023-03-22T09:04:34.027Z,66.06
2023-03-22T09:07:01.896Z,66.03
2023-03-22T09:09:29.937Z,66.03
2023-03-22T09:11:58.297Z,66.17
2023-03-22T09:14:26.073Z,66.54
2023-03-22T09:16:53.824Z,65.79
2023-03-22T09:19:21.443Z,66.02
2023-03-22T09:21:50.609Z,66.01
2023-03-22T09:24:18.486Z,65.51
2023-03-22T09:26:46.271Z,65.66
2023-03-22T09:29:14.113Z,64.34
2023-03-22T09:31:41.861Z,64.26
2023-03-22T09:34:10.427Z,64.49
2023-03-22T09:36:38.149Z,64.55
2023-03-22T09:39:07.669Z,64.01
2023-03-22T09:41:35.359Z,63.34
2023-03-22T09:44:03.410Z,63.91
2023-03-22T09:46:31.531Z,63.48
2023-03-22T09:48:59.219Z,62.64
2023-03-22T09:51:27.278Z,62.42
2023-03-22T09:53:55.111Z,62.42
2023-03-22T09:56:23.281Z,62.74
2023-03-22T09:58:51.543Z,61.51
2023-03-22T10:01:21.008Z,60.85
2023-03-22T10:03:48.937Z,60.28
2023-03-22T10:06:17.092Z,60.05
2023-03-22T10:08:44.953Z,58.53
2023-03-22T10:11:13.111Z,58.32
2023-03-22T10:13:41.019Z,58.36
2023-03-22T10:16:08.747Z,57.62
2023-03-22T10:18:36.522Z,58.49
2023-03-22T10:21:04.454Z,59.02
2023-03-22T10:23:32.848Z,58.48
2023-03-22T10:26:01.344Z,58.18
2023-03-22T10:28:29.612Z,58.46
2023-03-22T10:30:57.395Z,58.13
2023-03-22T10:33:25.100Z,57.71
2023-03-22T10:35:53.928Z,57.16
2023-03-22T10:38:21.759Z,56.41
2023-03-22T10:40:49.600Z,55.33
2023-03-22T10:43:17.645Z,55.21
2023-03-22T10:45:45.380Z,55.27
2023-03-22T10:48:14.100Z,54.87
2023-03-22T10:50:42.119Z,55.97
2023-03-22T10:53:09.983Z,55.91
2023-03-22T10:55:37.894Z,55.23
2023-03-22T10:58:06.955Z,55.79
2023-03-22T11:00:38.424Z,55.64
2023-03-22T11:03:08.725Z,54.44
2023-03-22T11:05:36.839Z,54.63
2023-03-22T11:08:04.597Z,54.13
2023-03-22T11:10:33.207Z,54.91
2023-03-22T11:13:02.687Z,55.17
2023-03-22T11:15:30.716Z,54.73
2023-03-22T11:17:58.711Z,54.96
2023-03-22T11:20:27.137Z,54.26
2023-03-22T11:22:56.563Z,53.79
2023-03-22T11:25:25.177Z,54.33
2023-03-22T11:27:53.302Z,53.70
2023-03-22T11:30:21.722Z,53.09
2023-03-22T11:32:49.877Z,53.13
2023-03-22T11:35:18.767Z,52.41
2023-03-22T11:37:47.429Z,52.98
2023-03-22T11:40:15.866Z,51.71
2023-03-22T11:42:43.757Z,51.01
2023-03-22T11:45:11.623Z,50.03
2023-03-22T11:47:39.678Z,49.50
2023-03-22T11:50:09.528Z,49.46
2023-03-22T11:52:38.647Z,49.70
2023-03-22T11:55:07.099Z,49.93
2023-03-22T11:57:35.136Z,50.18
2023-03-22T12:00:07.447Z,50.39
2023-03-22T12:02:35.860Z,50.51
2023-03-22T12:05:03.942Z,50.99
2023-03-22T12:07:31.917Z,51.70
2023-03-22T12:10:00.260Z,51.70
2023-03-22T12:12:28.302Z,52.17
2023-03-22T12:14:56.523Z,52.64
2023-03-22T12:17:24.549Z,52.89
2023-03-22T12:19:52.408Z,53.08
2023-03-22T12:22:20.219Z,53.38
2023-03-22T12:24:48.188Z,54.03
2023-03-22T12:27:16.907Z,55.17
2023-03-22T12:29:44.803Z,56.43
2023-03-22T12:32:12.711Z,56.55
2023-03-22T12:34:40.666Z,56.62
2023-03-22T12:37:08.859Z,56.36
2023-03-22T12:39:38.452Z,56.05
2023-03-22T12:42:06.521Z,56.11
2023-03-22T12:44:34.431Z,55.59
2023-03-22T12:47:02.711Z,55.34
2023-03-22T12:49:31.370Z,55.54
2023-03-22T12:51:59.732Z,55.38
2023-03-22T12:54:27.672Z,55.67
2023-03-22T12:56:55.579Z,55.78
2023-03-22T12:59:23.775Z,55.75
2023-03-22T13:01:52.517Z,55.17
2023-03-22T13:04:21.253Z,55.44
2023-03-22T13:06:49.565Z,55.61
2023-03-22T13:09:17.354Z,55.14
2023-03-22T13:11:45.286Z,54.82
2023-03-22T13:14:13.521Z,54.76
2023-03-22T13:16:42.140Z,53.81
2023-03-22T13:19:10.510Z,53.82
2023-03-22T13:21:38.804Z,53.63
2023-03-22T13:24:07.997Z,53.44
2023-03-22T13:26:36.027Z,53.57
2023-03-22T13:29:04.616Z,53.91
2023-03-22T13:31:32.750Z,54.30
2023-03-22T13:34:01.381Z,54.83
2023-03-22T13:36:29.893Z,54.57
2023-03-22T13:38:57.807Z,54.81
2023-03-22T13:41:25.957Z,54.64
2023-03-22T13:43:54.379Z,54.76
2023-03-22T13:46:22.456Z,54.87
2023-03-22T13:48:50.890Z,55.34
2023-03-22T13:51:18.877Z,55.07
2023-03-22T13:53:47.320Z,55.33
2023-03-22T13:56:15.838Z,55.21
2023-03-22T13:58:43.926Z,55.38
2023-03-22T14:01:11.998Z,55.28
2023-03-22T14:03:40.704Z,55.21
2023-03-22T14:06:10.621Z,55.60
2023-03-22T14:08:38.707Z,55.70
2023-03-22T14:11:06.623Z,55.38
2023-03-22T14:13:34.707Z,56.10
2023-03-22T14:16:02.804Z,56.29
2023-03-22T14:18:31.193Z,56.29
2023-03-22T14:20:59.288Z,56.64
